createdAt,value
2023-03-25T00:40:28.770Z,77.51
2023-03-25T00:45:50.039Z,77.52
2023-03-25T00:49:05.013Z,77.27
2023-03-25T00:58:01.121Z,77.49
2023-03-25T01:03:16.080Z,77.53
2023-03-25T01:06:11.772Z,77.87
2023-03-25T01:08:40.815Z,77.79
2023-03-25T01:23:48.663Z,79.58
2023-03-25T01:26:34.171Z,79.80
2023-03-25T01:42:14.824Z,80.57
2023-03-25T01:47:34.904Z,80.45
2023-03-25T02:16:55.189Z,77.87
2023-03-25T02:27:23.449Z,76.73
2023-03-25T02:30:33.831Z,76.94
2023-03-25T02:44:07.951Z,76.02
2023-03-25T02:53:10.873Z,75.35
2023-03-25T02:59:20.863Z,75.57
2023-03-25T03:01:52.503Z,75.44
2023-03-25T03:08:10.458Z,75.69
2023-03-25T03:45:09.143Z,82.47
2023-03-25T03:47:52.072Z,83.40
2023-03-25T03:50:42.777Z,83.90
2023-03-25T04:00:32.903Z,84.96
2023-03-25T04:04:00.105Z,85.09
2023-03-25T04:14:19.112Z,85.08
2023-03-25T04:20:37.273Z,84.83
2023-03-25T04:23:08.358Z,84.33
2023-03-25T04:26:03.067Z,84.05
2023-03-25T04:31:25.859Z,83.43
2023-03-25T04:39:50.159Z,82.78
2023-03-25T05:11:25.946Z,86.62
2023-03-25T05:21:29.588Z,85.70
2023-03-25T05:24:04.982Z,85.36
2023-03-25T05:29:21.328Z,84.92
2023-03-25T05:31:49.234Z,84.41
2023-03-25T05:41:50.068Z,83.54
2023-03-25T06:03:18.010Z,86.09
2023-03-25T06:25:43.551Z,87.15
2023-03-25T06:28:17.027Z,87.06
2023-03-25T06:30:45.446Z,87.67
2023-03-25T06:33:42.875Z,87.41
2023-03-25T06:36:10.395Z,85.94
2023-03-25T06:38:45.147Z,86.23
2023-03-25T06:41:14.159Z,86.11
2023-03-25T06:43:47.965Z,86.25
2023-03-25T06:46:22.889Z,86.43
2023-03-25T06:52:07.031Z,86.42
2023-03-25T07:13:49.626Z,87.87
2023-03-25T07:22:51.216Z,87.94
2023-03-25T07:25:18.388Z,87.95
2023-03-25T07:27:45.585Z,87.89
2023-03-25T07:30:19.045Z,87.51
2023-03-25T07:32:53.120Z,87.47
2023-03-25T07:35:20.163Z,87.15
2023-03-25T07:37:54.010Z,86.55
2023-03-25T07:40:20.927Z,86.31
2023-03-25T07:42:54.033Z,86.25
2023-03-25T07:45:21.151Z,86.02
2023-03-25T07:47:57.079Z,85.68
2023-03-25T07:50:25.541Z,85.64
2023-03-25T07:53:00.051Z,84.93
2023-03-25T07:55:26.957Z,85.04
2023-03-25T07:58:00.015Z,84.67
2023-03-25T08:00:34.049Z,84.72
2023-03-25T08:03:01.121Z,84.98
2023-03-25T08:05:35.209Z,85.25
2023-03-25T08:08:05.996Z,85.20
2023-03-25T08:10:40.271Z,85.49
2023-03-25T08:13:07.475Z,85.80
2023-03-25T08:15:42.146Z,85.96
2023-03-25T08:18:09.318Z,85.58
2023-03-25T08:20:43.163Z,85.17
2023-03-25T08:23:19.724Z,84.69
2023-03-25T08:25:56.063Z,85.18
2023-03-25T08:28:23.562Z,84.52
2023-03-25T08:31:02.084Z,84.67
2023-03-25T08:33:41.435Z,85.69
2023-03-25T08:36:27.099Z,86.11
2023-03-25T08:38:54.313Z,86.30
2023-03-25T08:41:28.202Z,86.62
2023-03-25T08:43:56.051Z,86.53
2023-03-25T08:46:30.074Z,87.19
2023-03-25T08:49:04.658Z,86.86
2023-03-25T08:51:32.220Z,86.96
2023-03-25T08:54:06.332Z,86.98
2023-03-25T08:56:33.966Z,85.91
2023-03-25T08:59:07.151Z,84.56
2023-03-25T09:01:34.446Z,84.34
2023-03-25T09:04:08.101Z,84.89
2023-03-25T09:06:47.992Z,84.49
2023-03-25T09:09:23.014Z,84.67
2023-03-25T09:11:57.315Z,84.13
2023-03-25T09:14:31.296Z,83.61
2023-03-25T09:17:05.277Z,83.59
2023-03-25T09:19:34.835Z,83.99
2023-03-25T09:22:15.357Z,83.75
2023-03-25T09:24:55.154Z,83.92
2023-03-25T09:27:22.283Z,83.86
2023-03-25T09:29:56.280Z,83.77
2023-03-25T09:32:23.549Z,83.42
2023-03-25T09:34:50.373Z,82.55
2023-03-25T09:37:24.122Z,82.83
2023-03-25T09:39:51.008Z,83.07
2023-03-25T09:42:58.045Z,83.39
2023-03-25T09:45:49.857Z,83.11
2023-03-25T09:48:42.122Z,83.87
2023-03-25T09:51:14.982Z,84.41
2023-03-25T09:54:33.022Z,85.20
2023-03-25T09:57:13.216Z,85.00
2023-03-25T09:59:43.200Z,85.04
2023-03-25T10:02:47.243Z,84.24
2023-03-25T10:05:43.241Z,83.88
2023-03-25T10:08:29.076Z,84.70
2023-03-25T10:11:19.024Z,84.40
2023-03-25T10:14:23.009Z,83.24
2023-03-25T10:17:17.020Z,81.63
2023-03-25T10:20:26.076Z,81.90
2023-03-25T10:23:18.086Z,78.64
2023-03-25T10:25:48.073Z,77.55
2023-03-25T10:28:27.037Z,77.27
2023-03-25T10:31:02.365Z,76.78
2023-03-25T10:33:44.258Z,76.17
2023-03-25T10:36:26.140Z,75.71
2023-03-25T10:39:04.191Z,73.98
2023-03-25T10:41:45.065Z,71.81
2023-03-25T10:44:12.597Z,72.08
2023-03-25T10:47:08.056Z,70.10
2023-03-25T10:49:37.266Z,70.95
2023-03-25T10:52:11.207Z,70.65
2023-03-25T10:54:44.487Z,70.77
2023-03-25T10:57:26.111Z,70.44
2023-03-25T10:59:58.808Z,70.32
2023-03-25T11:02:35.309Z,68.56
2023-03-25T11:05:05.346Z,69.80
2023-03-25T11:08:14.741Z,69.63
2023-03-25T11:10:52.013Z,67.85
2023-03-25T11:13:37.144Z,69.91
2023-03-25T11:16:05.091Z,70.93
2023-03-25T11:18:49.224Z,71.44
2023-03-25T11:21:18.808Z,73.58
2023-03-25T11:23:57.230Z,74.99
2023-03-25T11:26:39.042Z,77.14
2023-03-25T11:29:22.118Z,75.14
2023-03-25T11:32:11.106Z,75.74
2023-03-25T11:34:57.412Z,75.07
2023-03-25T11:37:32.133Z,74.95
2023-03-25T11:40:15.240Z,75.07
2023-03-25T11:42:56.419Z,75.26
2023-03-25T11:45:48.988Z,76.93
2023-03-25T11:48:19.804Z,78.85
2023-03-25T11:51:05.435Z,81.14
2023-03-25T11:53:34.179Z,82.17
2023-03-25T11:56:13.160Z,83.54
2023-03-25T11:58:42.962Z,84.05
2023-03-25T12:01:37.120Z,84.63
2023-03-25T12:04:23.554Z,84.16
2023-03-25T12:07:13.446Z,84.62
2023-03-25T12:09:56.278Z,84.79
2023-03-25T12:13:01.865Z,84.89
2023-03-25T12:15:44.210Z,84.96
2023-03-25T12:18:41.161Z,85.16
2023-03-25T12:21:48.248Z,84.77
2023-03-25T12:24:33.917Z,82.73
2023-03-25T12:27:41.181Z,80.33
2023-03-25T12:30:30.297Z,79.19
2023-03-25T12:33:49.179Z,78.87
2023-03-25T12:36:44.680Z,80.04
2023-03-25T12:39:45.290Z,80.27
2023-03-25T12:42:22.115Z,81.10
2023-03-25T12:45:31.186Z,80.11
2023-03-25T12:48:17.377Z,80.48
2023-03-25T12:51:17.428Z,80.74
2023-03-25T12:54:02.754Z,80.04
2023-03-25T12:57:01.405Z,78.74
2023-03-25T12:59:50.442Z,78.23
2023-03-25T13:02:55.430Z,77.49
2023-03-25T13:05:28.326Z,75.78
2023-03-25T13:08:08.297Z,76.10
2023-03-25T13:10:45.581Z,75.80
2023-03-25T13:13:26.199Z,74.77
2023-03-25T13:16:11.922Z,73.78
2023-03-25T13:18:57.292Z,71.01
2023-03-25T13:21:30.712Z,70.32
2023-03-25T13:24:10.202Z,67.63
2023-03-25T13:26:40.729Z,67.98
2023-03-25T13:29:35.340Z,66.93
2023-03-25T13:32:10.373Z,67.83
2023-03-25T13:35:04.450Z,65.60
2023-03-25T13:37:46.603Z,65.97
2023-03-25T13:40:52.407Z,67.47
2023-03-25T13:43:59.216Z,66.52
2023-03-25T13:46:45.185Z,66.93
2023-03-25T13:49:38.268Z,69.50
2023-03-25T13:52:14.326Z,71.39
2023-03-25T13:55:24.677Z,72.02
2023-03-25T13:58:15.470Z,72.12
2023-03-25T14:01:18.393Z,73.90
2023-03-25T14:04:30.304Z,74.68
2023-03-25T14:07:10.253Z,75.42
2023-03-25T14:09:50.704Z,76.83
2023-03-25T14:12:39.267Z,77.49
2023-03-25T14:15:18.579Z,77.30
2023-03-25T14:20:27.746Z,76.75
2023-03-25T14:23:17.697Z,76.95
2023-03-25T14:25:56.200Z,76.16
2023-03-25T14:28:55.135Z,75.00
2023-03-25T14:31:33.393Z,73.23
2023-03-25T14:34:07.351Z,72.94
2023-03-25T14:36:41.906Z,73.21
2023-03-25T14:39:41.295Z,72.29
2023-03-25T14:42:08.525Z,71.57
2023-03-25T14:44:57.666Z,71.74
2023-03-25T14:47:33.452Z,71.43
2023-03-25T14:50:28.397Z,71.05
2023-03-25T14:53:00.433Z,68.71
2023-03-25T14:55:43.251Z,68.82
2023-03-25T14:58:32.201Z,68.93
2023-03-25T15:01:11.416Z,66.80
2023-03-25T15:03:44.380Z,65.67
2023-03-25T15:06:36.220Z,64.08
2023-03-25T15:09:22.313Z,64.08
2023-03-25T15:12:12.265Z,61.35
2023-03-25T15:14:43.249Z,61.88
2023-03-25T15:17:38.315Z,63.08
2023-03-25T15:20:13.387Z,64.27
2023-03-25T15:22:47.298Z,66.15
2023-03-25T15:25:20.128Z,67.02
2023-03-25T15:28:18.512Z,67.99
2023-03-25T15:31:35.279Z,68.63
2023-03-25T15:37:46.154Z,68.17
2023-03-25T15:40:33.789Z,67.72
2023-03-25T15:43:17.278Z,67.85
2023-03-25T15:46:07.358Z,67.89
2023-03-25T15:49:18.363Z,68.73
2023-03-25T15:52:01.089Z,69.67
2023-03-25T15:54:42.367Z,70.82
2023-03-25T15:57:26.091Z,71.78
2023-03-25T16:00:15.373Z,74.33
2023-03-25T16:03:06.751Z,76.94
2023-03-25T16:05:51.460Z,78.87
2023-03-25T16:08:41.785Z,80.60
2023-03-25T16:11:28.572Z,82.32
2023-03-25T16:14:31.214Z,83.15
2023-03-25T16:17:01.916Z,83.32
2023-03-25T16:19:49.597Z,83.66
2023-03-25T16:22:34.529Z,83.70
2023-03-25T16:25:12.494Z,83.71
2023-03-25T16:27:57.324Z,83.94
2023-03-25T16:30:40.561Z,83.28
2023-03-25T16:33:07.728Z,82.98
2023-03-25T16:35:51.652Z,83.15
2023-03-25T16:38:32.546Z,82.41
2023-03-25T16:41:17.363Z,81.37
2023-03-25T16:43:55.572Z,81.47
2023-03-25T16:46:23.844Z,81.37
2023-03-25T16:49:00.416Z,81.28
2023-03-25T16:51:36.557Z,81.87
2023-03-25T16:54:22.005Z,82.13
2023-03-25T16:56:49.698Z,81.59
2023-03-25T16:59:28.354Z,81.76
2023-03-25T17:01:58.538Z,82.46
2023-03-25T17:04:58.091Z,82.25
2023-03-25T17:07:28.536Z,82.03
2023-03-25T17:10:06.684Z,82.26
2023-03-25T17:12:35.683Z,82.04
2023-03-25T17:15:16.648Z,82.00
2023-03-25T17:17:51.939Z,81.55
2023-03-25T17:20:30.460Z,81.31
2023-03-25T17:23:08.505Z,81.16
2023-03-25T17:25:57.496Z,81.14
2023-03-25T17:28:40.366Z,81.05
2023-03-25T17:31:36.670Z,80.84
2023-03-25T17:34:24.315Z,80.68
2023-03-25T17:37:10.294Z,80.62
2023-03-25T17:39:44.466Z,79.99
2023-03-25T17:42:34.504Z,80.38
2023-03-25T17:45:05.188Z,80.05
2023-03-25T17:47:44.467Z,80.29
2023-03-25T17:50:43.218Z,80.14
2023-03-25T17:53:17.531Z,80.36
2023-03-25T17:55:45.797Z,79.71
2023-03-25T17:58:23.438Z,79.74
2023-03-25T18:00:52.945Z,79.90
2023-03-25T18:03:30.312Z,79.63
2023-03-25T18:05:58.866Z,79.47
2023-03-25T18:08:33.415Z,79.55
2023-03-25T18:11:09.887Z,79.23
2023-03-25T18:13:52.617Z,79.57
2023-03-25T18:16:22.169Z,78.96
2023-03-25T18:18:58.391Z,79.04
2023-03-25T18:21:26.218Z,79.39
2023-03-25T18:24:03.318Z,79.58
2023-03-25T18:26:30.935Z,79.36
2023-03-25T18:29:05.494Z,79.44
2023-03-25T18:31:39.455Z,79.45
2023-03-25T18:34:07.071Z,79.84
2023-03-25T18:36:41.677Z,79.64
2023-03-25T18:39:21.518Z,79.75
2023-03-25T18:41:59.438Z,79.92
2023-03-25T18:44:28.769Z,80.11
2023-03-25T18:47:02.488Z,80.09
2023-03-25T18:49:29.886Z,80.07
2023-03-25T18:52:00.115Z,80.29
2023-03-25T18:54:37.127Z,80.15
2023-03-25T18:57:13.494Z,80.15
2023-03-25T18:59:40.861Z,80.23
2023-03-25T19:02:15.571Z,80.37
2023-03-25T19:04:59.677Z,80.83
2023-03-25T19:10:23.656Z,81.13
2023-03-25T19:13:00.414Z,81.16
2023-03-25T19:15:30.892Z,81.51
2023-03-25T19:18:05.571Z,81.52
2023-03-25T19:23:22.411Z,81.63
2023-03-25T19:26:01.585Z,82.15
2023-03-25T19:28:36.793Z,82.20
2023-03-25T19:31:10.688Z,82.37
2023-03-25T19:33:41.347Z,82.62
2023-03-25T19:36:18.020Z,82.70
2023-03-25T19:41:43.416Z,82.92
2023-03-25T19:44:21.685Z,82.83
2023-03-25T19:46:55.652Z,82.96
2023-03-25T19:49:36.864Z,82.86
2023-03-25T19:52:13.393Z,82.89
2023-03-25T19:54:40.704Z,83.18
2023-03-25T19:57:16.862Z,83.44
2023-03-25T19:59:44.581Z,83.15
2023-03-25T20:02:19.491Z,83.23
2023-03-25T20:04:50.158Z,83.15
2023-03-25T20:07:26.610Z,83.13
2023-03-25T20:10:16.698Z,83.52
2023-03-25T20:12:56.467Z,83.43
2023-03-25T20:15:26.067Z,83.13
2023-03-25T20:18:05.008Z,83.33
2023-03-25T20:20:32.527Z,83.37
2023-03-25T20:23:13.531Z,82.96
2023-03-25T20:25:49.764Z,82.97
2023-03-25T20:28:26.678Z,83.12
2023-03-25T20:30:55.751Z,82.80
2023-03-25T20:33:35.556Z,83.10
2023-03-25T20:36:03.231Z,82.71
2023-03-25T20:38:41.887Z,82.49
2023-03-25T20:41:21.516Z,82.55
2023-03-25T20:43:57.470Z,82.73
2023-03-25T20:46:28.881Z,82.92
2023-03-25T20:49:07.750Z,82.87
2023-03-25T20:51:38.372Z,82.79
2023-03-25T20:54:12.479Z,82.65
2023-03-25T20:56:40.076Z,82.67
2023-03-25T20:59:09.677Z,82.69
2023-03-25T21:01:44.528Z,82.67
2023-03-25T21:04:13.986Z,82.52
2023-03-25T21:06:48.611Z,82.73
2023-03-25T21:09:35.464Z,82.57
2023-03-25T21:12:09.575Z,82.84
2023-03-25T21:14:38.580Z,82.72
2023-03-25T21:17:12.460Z,82.93
2023-03-25T21:19:43.302Z,82.82
2023-03-25T21:22:10.845Z,82.80
2023-03-25T21:24:44.466Z,82.89
2023-03-25T21:27:37.942Z,82.77
2023-03-25T21:32:54.187Z,82.92
2023-03-25T21:35:25.887Z,83.09
2023-03-25T21:40:47.495Z,83.00
2023-03-25T21:43:14.884Z,83.19
2023-03-25T21:45:48.745Z,83.26
2023-03-25T21:48:25.677Z,83.20
2023-03-25T21:54:07.542Z,83.25
2023-03-25T21:56:40.327Z,83.53
2023-03-25T21:59:14.439Z,83.31
2023-03-25T22:01:42.097Z,83.58
2023-03-25T22:09:44.568Z,83.90
2023-03-25T22:12:18.524Z,84.06
2023-03-25T22:14:52.534Z,84.04
2023-03-25T22:17:20.308Z,83.85
2023-03-25T22:19:55.523Z,84.32
2023-03-25T22:22:31.505Z,84.01
2023-03-25T22:24:58.835Z,84.19
2023-03-25T22:27:37.818Z,84.11
2023-03-25T22:30:08.740Z,83.99
2023-03-25T22:35:20.703Z,84.39
2023-03-25T22:43:28.567Z,84.71
2023-03-25T22:45:59.391Z,84.52
2023-03-25T22:48:38.524Z,84.50
2023-03-25T22:51:07.311Z,84.42
2023-03-25T22:53:41.786Z,84.60
2023-03-25T22:56:10.123Z,84.56
2023-03-25T22:58:44.413Z,84.63
2023-03-25T23:01:24.125Z,84.80
2023-03-25T23:03:59.723Z,84.83
2023-03-25T23:06:28.024Z,84.97
2023-03-25T23:09:05.492Z,84.86
2023-03-25T23:11:39.756Z,85.24
2023-03-25T23:14:25.628Z,85.01
2023-03-25T23:16:58.531Z,85.40
2023-03-25T23:19:35.397Z,85.12
2023-03-25T23:22:03.137Z,85.38
2023-03-25T23:38:59.069Z,85.75
2023-03-25T23:41:36.525Z,85.96
2023-03-25T23:44:04.852Z,86.13
2023-03-25T23:46:41.639Z,86.26
2023-03-25T23:49:22.519Z,86.35
2023-03-25T23:52:52.626Z,86.33
2023-03-25T23:55:20.886Z,86.36
2023-03-25T23:57:57.510Z,86.42
